createdAt,value
2023-05-14T00:00:23.616Z,13.54
2023-05-14T00:01:23.318Z,13.52
2023-05-14T00:02:23.337Z,13.51
2023-05-14T00:03:23.421Z,13.47
2023-05-14T00:04:23.327Z,13.46
2023-05-14T00:05:23.290Z,13.44
2023-05-14T00:06:23.282Z,13.46
2023-05-14T00:07:23.259Z,13.43
2023-05-14T00:08:23.240Z,13.41
2023-05-14T00:09:23.241Z,13.40
2023-05-14T00:10:23.425Z,13.38
2023-05-14T00:11:23.224Z,13.33
2023-05-14T00:12:23.213Z,13.33
2023-05-14T00:13:23.184Z,13.36
2023-05-14T00:14:23.176Z,13.36
2023-05-14T00:15:23.168Z,13.36
2023-05-14T00:16:23.202Z,13.37
2023-05-14T00:17:23.217Z,13.40
2023-05-14T00:18:23.148Z,13.38
2023-05-14T00:19:23.128Z,13.41
2023-05-14T00:20:23.532Z,13.40
2023-05-14T00:21:23.112Z,13.43
2023-05-14T00:22:23.086Z,13.43
2023-05-14T00:23:23.074Z,13.38
2023-05-14T00:24:30.752Z,13.36
2023-05-14T00:25:23.057Z,13.37
2023-05-14T00:26:23.041Z,13.38
2023-05-14T00:27:23.029Z,13.37
2023-05-14T00:28:23.031Z,13.36
2023-05-14T00:29:23.017Z,13.33
2023-05-14T00:30:23.219Z,13.33
2023-05-14T00:31:23.058Z,13.36
2023-05-14T00:32:23.067Z,13.36
2023-05-14T00:33:22.974Z,13.33
2023-05-14T00:34:22.967Z,13.33
2023-05-14T00:35:22.963Z,13.33
2023-05-14T00:36:23.022Z,13.32
2023-05-14T00:37:22.952Z,13.32
2023-05-14T00:38:22.934Z,13.29
2023-05-14T00:39:22.931Z,13.25
2023-05-14T00:40:23.208Z,13.24
2023-05-14T00:41:22.875Z,13.22
2023-05-14T00:42:22.898Z,13.20
2023-05-14T00:43:22.860Z,13.18
2023-05-14T00:44:22.888Z,13.17
2023-05-14T00:45:22.839Z,13.14
2023-05-14T00:46:22.949Z,13.11
2023-05-14T00:47:22.855Z,13.07
2023-05-14T00:48:22.825Z,13.06
2023-05-14T00:49:22.793Z,13.06
2023-05-14T00:50:23.017Z,13.04
2023-05-14T00:51:22.783Z,13.02
2023-05-14T00:52:22.764Z,12.89
2023-05-14T00:53:22.772Z,12.78
2023-05-14T00:54:22.750Z,12.70
2023-05-14T00:55:22.762Z,12.67
2023-05-14T00:56:22.757Z,12.66
2023-05-14T00:57:22.720Z,12.66
2023-05-14T00:58:22.728Z,12.67
2023-05-14T00:59:22.691Z,12.66
2023-05-14T01:00:22.865Z,12.69
2023-05-14T01:01:22.740Z,12.70
2023-05-14T01:02:22.775Z,12.70
2023-05-14T01:03:22.717Z,12.74
2023-05-14T01:04:22.665Z,12.77
2023-05-14T01:05:22.661Z,12.78
2023-05-14T01:06:22.634Z,12.78
2023-05-14T01:07:22.619Z,12.79
2023-05-14T01:08:22.598Z,12.78
2023-05-14T01:09:22.585Z,12.77
2023-05-14T01:10:22.759Z,12.75
2023-05-14T01:11:22.574Z,12.75
2023-05-14T01:12:22.577Z,12.75
2023-05-14T01:13:22.529Z,12.75
2023-05-14T01:14:22.514Z,12.75
2023-05-14T01:15:22.505Z,12.77
2023-05-14T01:16:22.542Z,12.75
2023-05-14T01:17:22.522Z,12.70
2023-05-14T01:18:22.509Z,12.66
2023-05-14T01:19:22.492Z,12.63
2023-05-14T01:20:22.759Z,12.63
2023-05-14T01:21:22.437Z,12.59
2023-05-14T01:22:22.456Z,12.56
2023-05-14T01:23:22.426Z,12.51
2023-05-14T01:24:22.439Z,12.49
2023-05-14T01:25:22.396Z,12.52
2023-05-14T01:26:22.376Z,12.52
2023-05-14T01:27:22.399Z,12.51
2023-05-14T01:28:22.376Z,12.51
2023-05-14T01:29:22.356Z,12.48
2023-05-14T01:30:22.708Z,12.39
2023-05-14T01:31:22.379Z,12.33
2023-05-14T01:32:22.339Z,12.26
2023-05-14T01:33:22.332Z,12.21
2023-05-14T01:34:22.306Z,12.20
2023-05-14T01:35:22.299Z,12.19
2023-05-14T01:36:22.299Z,12.16
2023-05-14T01:37:22.275Z,12.15
2023-05-14T01:38:22.270Z,12.19
2023-05-14T01:39:22.269Z,12.19
2023-05-14T01:40:22.478Z,12.16
2023-05-14T01:41:22.206Z,12.15
2023-05-14T01:42:22.253Z,12.08
2023-05-14T01:43:22.261Z,12.05
2023-05-14T01:44:22.174Z,12.05
2023-05-14T01:45:22.160Z,12.02
2023-05-14T01:46:22.242Z,12.02
2023-05-14T01:47:22.279Z,12.01
2023-05-14T01:48:22.185Z,12.01
2023-05-14T01:49:22.124Z,11.99
2023-05-14T01:50:22.316Z,11.96
2023-05-14T01:51:22.116Z,11.87
2023-05-14T01:52:22.098Z,11.89
2023-05-14T01:53:22.071Z,11.90
2023-05-14T01:54:22.077Z,11.93
2023-05-14T01:55:22.059Z,11.94
2023-05-14T01:56:22.047Z,11.94
2023-05-14T01:57:22.030Z,11.93
2023-05-14T01:58:22.027Z,11.96
2023-05-14T01:59:22.030Z,11.97
2023-05-14T02:00:22.252Z,11.97
2023-05-14T02:01:22.053Z,11.97
2023-05-14T02:02:22.008Z,11.99
2023-05-14T02:03:21.954Z,12.01
2023-05-14T02:04:22.057Z,11.97
2023-05-14T02:05:21.949Z,11.99
2023-05-14T02:06:21.948Z,12.02
2023-05-14T02:07:21.928Z,12.02
2023-05-14T02:08:21.932Z,12.04
2023-05-14T02:09:21.933Z,12.05
2023-05-14T02:10:22.047Z,12.08
2023-05-14T02:11:21.893Z,12.11
2023-05-14T02:12:21.876Z,12.13
2023-05-14T02:13:21.857Z,12.12
2023-05-14T02:14:21.837Z,12.11
2023-05-14T02:15:21.829Z,12.12
2023-05-14T02:16:21.847Z,12.12
2023-05-14T02:17:21.842Z,12.12
2023-05-14T02:18:21.834Z,12.12
2023-05-14T02:19:21.796Z,12.12
2023-05-14T02:20:21.989Z,12.11
2023-05-14T02:21:21.775Z,12.13
2023-05-14T02:22:21.760Z,12.15
2023-05-14T02:23:31.064Z,12.13
2023-05-14T02:24:21.773Z,12.13
2023-05-14T02:25:21.722Z,12.12
2023-05-14T02:26:21.695Z,12.12
2023-05-14T02:27:21.691Z,12.13
2023-05-14T02:28:21.681Z,12.11
2023-05-14T02:29:21.698Z,12.09
2023-05-14T02:30:21.954Z,12.08
2023-05-14T02:31:21.698Z,12.06
2023-05-14T02:32:21.689Z,12.04
2023-05-14T02:33:21.693Z,12.02
2023-05-14T02:34:21.630Z,12.02
2023-05-14T02:35:21.611Z,12.01
2023-05-14T02:36:21.642Z,11.97
2023-05-14T02:37:21.590Z,11.99
2023-05-14T02:38:21.566Z,11.99
2023-05-14T02:39:21.570Z,12.01
2023-05-14T02:40:21.628Z,11.97
2023-05-14T02:41:21.638Z,11.99
2023-05-14T02:42:21.551Z,11.97
2023-05-14T02:43:21.511Z,11.99
2023-05-14T02:44:21.536Z,11.99
2023-05-14T02:45:21.483Z,11.97
2023-05-14T02:46:21.524Z,11.97
2023-05-14T02:47:21.554Z,11.96
2023-05-14T02:48:21.487Z,11.94
2023-05-14T02:49:21.457Z,11.94
2023-05-14T02:50:21.692Z,11.93
2023-05-14T02:51:21.432Z,11.89
2023-05-14T02:52:21.445Z,11.87
2023-05-14T02:53:21.453Z,11.86
2023-05-14T02:54:21.420Z,11.85
2023-05-14T02:55:21.416Z,11.86
2023-05-14T02:56:21.378Z,11.83
2023-05-14T02:57:21.379Z,11.83
2023-05-14T02:58:28.175Z,11.85
2023-05-14T02:59:21.348Z,11.80
2023-05-14T03:00:21.779Z,11.80
2023-05-14T03:01:21.391Z,11.77
2023-05-14T03:02:21.356Z,11.77
2023-05-14T03:03:21.390Z,11.75
2023-05-14T03:04:21.310Z,11.77
2023-05-14T03:05:21.258Z,11.74
2023-05-14T03:06:21.373Z,11.74
2023-05-14T03:07:21.271Z,11.72
2023-05-14T03:08:21.279Z,11.72
2023-05-14T03:09:21.300Z,11.68
2023-05-14T03:10:21.400Z,11.67
2023-05-14T03:11:21.236Z,11.67
2023-05-14T03:12:21.238Z,11.65
2023-05-14T03:13:21.213Z,11.67
2023-05-14T03:14:21.185Z,11.67
2023-05-14T03:15:21.211Z,11.67
2023-05-14T03:16:21.211Z,11.64
2023-05-14T03:17:21.224Z,11.62
2023-05-14T03:18:21.138Z,11.59
2023-05-14T03:19:21.133Z,11.54
2023-05-14T03:20:21.306Z,11.53
2023-05-14T03:21:21.132Z,11.52
2023-05-14T03:22:21.094Z,11.52
2023-05-14T03:23:21.095Z,11.50
2023-05-14T03:24:21.108Z,11.50
2023-05-14T03:25:21.077Z,11.50
2023-05-14T03:26:21.820Z,11.47
2023-05-14T03:27:21.023Z,11.46
2023-05-14T03:28:21.011Z,11.44
2023-05-14T03:29:21.048Z,11.43
2023-05-14T03:30:21.107Z,11.39
2023-05-14T03:31:21.048Z,11.38
2023-05-14T03:32:21.021Z,11.34
2023-05-14T03:33:20.980Z,11.34
2023-05-14T03:34:20.966Z,11.32
2023-05-14T03:35:20.967Z,11.32
2023-05-14T03:36:20.985Z,11.32
2023-05-14T03:37:20.923Z,11.29
2023-05-14T03:38:20.947Z,11.29
2023-05-14T03:39:20.910Z,11.28
2023-05-14T03:40:20.899Z,11.25
2023-05-14T03:41:20.870Z,11.27
2023-05-14T03:42:20.913Z,11.27
2023-05-14T03:43:20.865Z,11.25
2023-05-14T03:44:20.857Z,11.24
2023-05-14T03:45:20.848Z,11.24
2023-05-14T03:46:20.830Z,11.24
2023-05-14T03:47:20.808Z,11.24
2023-05-14T03:48:20.970Z,11.25
2023-05-14T03:49:20.804Z,11.25
2023-05-14T03:50:20.868Z,11.27
2023-05-14T03:51:20.789Z,11.27
2023-05-14T03:52:20.774Z,11.28
2023-05-14T03:53:20.775Z,11.29
2023-05-14T03:54:20.745Z,11.31
2023-05-14T03:55:20.719Z,11.32
2023-05-14T03:56:20.701Z,11.35
2023-05-14T03:57:20.688Z,11.36
2023-05-14T03:58:20.691Z,11.38
2023-05-14T03:59:20.720Z,11.38
2023-05-14T04:00:20.769Z,11.39
2023-05-14T04:01:20.659Z,11.41
2023-05-14T04:02:20.687Z,11.41
2023-05-14T04:03:20.720Z,11.41
2023-05-14T04:04:20.679Z,11.43
2023-05-14T04:05:20.606Z,11.43
2023-05-14T04:06:20.632Z,11.44
2023-05-14T04:07:20.593Z,11.44
2023-05-14T04:08:20.582Z,11.46
2023-05-14T04:09:20.600Z,11.47
2023-05-14T04:10:20.587Z,11.47
2023-05-14T04:11:20.574Z,11.46
2023-05-14T04:12:20.548Z,11.46
2023-05-14T04:13:20.543Z,11.49
2023-05-14T04:14:20.546Z,11.47
2023-05-14T04:15:20.520Z,11.50
2023-05-14T04:16:20.492Z,11.53
2023-05-14T04:17:20.497Z,11.53
2023-05-14T04:18:20.503Z,11.54
2023-05-14T04:19:20.564Z,11.57
2023-05-14T04:20:20.499Z,11.59
2023-05-14T04:21:20.467Z,11.61
2023-05-14T04:22:20.441Z,11.64
2023-05-14T04:23:20.412Z,11.67
2023-05-14T04:24:20.446Z,11.70
2023-05-14T04:25:20.394Z,11.71
2023-05-14T04:26:20.411Z,11.72
2023-05-14T04:27:20.378Z,11.77
2023-05-14T04:28:20.388Z,11.78
2023-05-14T04:29:20.372Z,11.80
2023-05-14T04:30:20.394Z,11.83
2023-05-14T04:31:20.341Z,11.85
2023-05-14T04:32:20.330Z,11.87
2023-05-14T04:33:20.338Z,11.89
2023-05-14T04:34:20.878Z,11.90
2023-05-14T04:35:21.618Z,11.94
2023-05-14T04:36:20.303Z,11.96
2023-05-14T04:37:20.278Z,11.99
2023-05-14T04:38:20.278Z,12.01
2023-05-14T04:39:20.257Z,12.02
2023-05-14T04:40:20.266Z,12.04
2023-05-14T04:41:20.262Z,12.06
2023-05-14T04:42:20.221Z,12.06
2023-05-14T04:43:20.206Z,12.09
2023-05-14T04:44:20.176Z,12.11
2023-05-14T04:45:20.212Z,12.13
2023-05-14T04:46:20.240Z,12.15
2023-05-14T04:47:20.311Z,12.19
2023-05-14T04:48:20.140Z,12.21
2023-05-14T04:49:20.121Z,12.23
2023-05-14T04:50:20.118Z,12.26
2023-05-14T04:51:20.151Z,12.29
2023-05-14T04:52:20.079Z,12.30
2023-05-14T04:53:20.103Z,12.31
2023-05-14T04:54:20.114Z,12.34
2023-05-14T04:55:20.052Z,12.37
2023-05-14T04:56:20.062Z,12.39
2023-05-14T04:57:20.083Z,12.42
2023-05-14T04:58:20.019Z,12.45
2023-05-14T04:59:20.025Z,12.48
2023-05-14T05:00:19.999Z,12.51
2023-05-14T05:01:20.011Z,12.54
2023-05-14T05:02:20.004Z,12.54
2023-05-14T05:03:20.071Z,12.59
2023-05-14T05:04:20.068Z,12.62
2023-05-14T05:05:19.940Z,12.66
2023-05-14T05:06:19.958Z,12.70
2023-05-14T05:07:19.945Z,12.74
2023-05-14T05:08:19.919Z,12.78
2023-05-14T05:09:19.907Z,12.79
2023-05-14T05:10:19.896Z,12.82
2023-05-14T05:11:19.940Z,12.87
2023-05-14T05:12:19.862Z,12.93
2023-05-14T05:13:19.889Z,12.97
2023-05-14T05:14:19.859Z,13.00
2023-05-14T05:15:19.842Z,13.03
2023-05-14T05:16:19.885Z,13.07
2023-05-14T05:17:19.877Z,13.14
2023-05-14T05:18:19.789Z,13.17
2023-05-14T05:19:22.487Z,13.21
2023-05-14T05:20:19.786Z,13.24
2023-05-14T05:21:19.800Z,13.29
2023-05-14T05:22:19.769Z,13.36
2023-05-14T05:23:19.742Z,13.40
2023-05-14T05:24:19.742Z,13.44
2023-05-14T05:25:19.728Z,13.49
2023-05-14T05:26:19.747Z,13.54
2023-05-14T05:27:19.701Z,13.56
2023-05-14T05:28:19.684Z,13.62
2023-05-14T05:29:19.708Z,13.67
2023-05-14T05:30:19.678Z,13.70
2023-05-14T05:31:20.104Z,13.76
2023-05-14T05:32:19.650Z,13.81
2023-05-14T05:33:19.646Z,13.87
2023-05-14T05:34:19.661Z,13.92
2023-05-14T05:35:19.622Z,13.98
2023-05-14T05:36:19.639Z,14.02
2023-05-14T05:37:19.595Z,14.09
2023-05-14T05:38:19.562Z,14.12
2023-05-14T05:39:19.555Z,14.17
2023-05-14T05:40:19.575Z,14.20
2023-05-14T05:41:19.546Z,14.27
2023-05-14T05:42:19.520Z,14.31
2023-05-14T05:43:19.529Z,14.37
2023-05-14T05:44:19.503Z,14.42
2023-05-14T05:45:19.507Z,14.46
2023-05-14T05:46:19.533Z,14.50
2023-05-14T05:47:19.558Z,14.54
2023-05-14T05:48:19.482Z,14.62
2023-05-14T05:49:19.479Z,14.69
2023-05-14T05:50:20.046Z,14.74
2023-05-14T05:51:19.448Z,14.81
2023-05-14T05:52:19.419Z,14.86
2023-05-14T05:53:19.407Z,14.91
2023-05-14T05:54:19.410Z,14.98
2023-05-14T05:55:19.397Z,15.02
2023-05-14T05:56:19.395Z,15.09
2023-05-14T05:57:19.360Z,15.17
2023-05-14T05:58:19.359Z,15.21
2023-05-14T05:59:19.340Z,15.28
2023-05-14T06:00:19.340Z,15.33
2023-05-14T06:01:19.329Z,15.39
2023-05-14T06:02:20.140Z,15.41
2023-05-14T06:03:19.323Z,15.46
2023-05-14T06:04:19.297Z,15.51
2023-05-14T06:05:19.342Z,15.56
2023-05-14T06:06:19.279Z,15.61
2023-05-14T06:07:19.241Z,15.64
2023-05-14T06:08:19.233Z,15.70
2023-05-14T06:09:19.250Z,15.78
2023-05-14T06:10:19.258Z,15.85
2023-05-14T06:11:19.226Z,15.92
2023-05-14T06:12:19.202Z,15.99
2023-05-14T06:13:19.191Z,16.03
2023-05-14T06:14:19.176Z,16.11
2023-05-14T06:15:19.155Z,16.15
2023-05-14T06:16:19.176Z,16.18
2023-05-14T06:17:19.213Z,16.23
2023-05-14T06:18:19.146Z,16.30
2023-05-14T06:19:19.280Z,16.37
2023-05-14T06:20:19.112Z,16.42
2023-05-14T06:21:19.098Z,16.49
2023-05-14T06:22:19.078Z,16.53
2023-05-14T06:23:19.103Z,16.59
2023-05-14T06:24:25.620Z,16.67
2023-05-14T06:25:19.915Z,16.81
2023-05-14T06:26:19.042Z,16.89
2023-05-14T06:27:19.014Z,16.95
2023-05-14T06:28:19.009Z,16.99
2023-05-14T06:29:19.012Z,17.07
2023-05-14T06:30:18.999Z,17.10
2023-05-14T06:31:18.985Z,17.14
2023-05-14T06:32:19.038Z,17.18
2023-05-14T06:33:20.628Z,17.23
2023-05-14T06:34:18.940Z,17.28
2023-05-14T06:35:18.939Z,17.26
2023-05-14T06:36:18.924Z,17.23
2023-05-14T06:37:18.907Z,17.23
2023-05-14T06:38:18.896Z,17.25
2023-05-14T06:39:18.884Z,17.29
2023-05-14T06:40:18.897Z,17.32
2023-05-14T06:41:18.865Z,17.43
2023-05-14T06:42:18.877Z,17.51
2023-05-14T06:43:18.897Z,17.62
2023-05-14T06:44:18.842Z,17.70
2023-05-14T06:45:18.813Z,17.71
2023-05-14T06:46:18.845Z,17.76
2023-05-14T06:47:18.822Z,17.78
2023-05-14T06:48:19.025Z,17.82
2023-05-14T06:49:18.811Z,17.82
2023-05-14T06:50:18.782Z,17.85
2023-05-14T06:51:18.757Z,17.88
2023-05-14T06:52:18.755Z,17.85
2023-05-14T06:53:18.726Z,17.89
2023-05-14T06:54:18.725Z,17.97
2023-05-14T06:55:18.709Z,18.03
2023-05-14T06:56:18.713Z,18.12
2023-05-14T06:57:18.674Z,18.18
2023-05-14T06:58:18.685Z,18.27
2023-05-14T06:59:18.670Z,18.31
2023-05-14T07:00:18.658Z,18.37
2023-05-14T07:01:18.682Z,18.44
2023-05-14T07:02:18.625Z,18.54
2023-05-14T07:03:18.624Z,18.58
2023-05-14T07:04:18.648Z,18.61
2023-05-14T07:05:18.583Z,18.67
2023-05-14T07:06:18.596Z,18.73
2023-05-14T07:07:18.562Z,18.77
2023-05-14T07:08:18.554Z,18.80
2023-05-14T07:09:18.560Z,18.80
2023-05-14T07:10:18.543Z,18.76
2023-05-14T07:11:18.565Z,18.74
2023-05-14T07:12:18.519Z,18.77
2023-05-14T07:13:18.511Z,18.82
2023-05-14T07:14:18.499Z,18.86
2023-05-14T07:15:18.495Z,18.97
2023-05-14T07:16:18.506Z,19.05
2023-05-14T07:17:18.587Z,19.11
2023-05-14T07:18:18.455Z,19.15
2023-05-14T07:19:18.504Z,19.15
2023-05-14T07:20:18.425Z,19.20
2023-05-14T07:21:18.435Z,19.20
2023-05-14T07:22:18.412Z,19.24
2023-05-14T07:23:19.873Z,19.29
2023-05-14T07:24:18.395Z,19.39
2023-05-14T07:25:18.372Z,19.50
2023-05-14T07:26:18.368Z,19.60
2023-05-14T07:27:18.360Z,19.70
2023-05-14T07:28:18.330Z,19.78
2023-05-14T07:29:18.329Z,19.84
2023-05-14T07:30:18.309Z,19.87
2023-05-14T07:31:18.371Z,19.88
2023-05-14T07:32:18.293Z,19.93
2023-05-14T07:33:18.280Z,20.00
2023-05-14T07:34:18.273Z,20.08
2023-05-14T07:35:18.257Z,20.09
2023-05-14T07:36:18.262Z,20.12
2023-05-14T07:37:18.243Z,20.12
2023-05-14T07:38:18.231Z,20.06
2023-05-14T07:39:18.224Z,20.08
2023-05-14T07:40:18.238Z,20.13
2023-05-14T07:41:18.207Z,20.21
2023-05-14T07:42:31.710Z,20.31
2023-05-14T07:43:18.192Z,20.34
2023-05-14T07:44:18.163Z,20.42
2023-05-14T07:45:18.143Z,20.53
2023-05-14T07:46:18.153Z,20.54
2023-05-14T07:47:18.169Z,20.56
2023-05-14T07:48:18.151Z,20.58
2023-05-14T07:49:18.110Z,20.64
2023-05-14T07:50:18.093Z,20.59
2023-05-14T07:51:18.096Z,20.58
2023-05-14T07:52:18.073Z,20.58
2023-05-14T07:53:18.055Z,20.62
2023-05-14T07:54:18.047Z,20.53
2023-05-14T07:55:18.040Z,20.50
2023-05-14T07:56:18.051Z,20.56
2023-05-14T07:57:18.019Z,20.68
2023-05-14T07:58:18.006Z,20.69
2023-05-14T07:59:17.991Z,20.77
2023-05-14T08:00:17.990Z,20.81
2023-05-14T08:01:17.991Z,20.90
2023-05-14T08:02:18.015Z,20.90
2023-05-14T08:03:18.070Z,20.87
2023-05-14T08:04:18.029Z,20.83
2023-05-14T08:05:17.925Z,20.87
2023-05-14T08:06:17.935Z,20.90
2023-05-14T08:07:17.916Z,20.93
2023-05-14T08:08:17.891Z,20.99
2023-05-14T08:09:17.881Z,21.02
2023-05-14T08:10:17.891Z,21.05
2023-05-14T08:11:17.907Z,21.13
2023-05-14T08:12:17.867Z,21.19
2023-05-14T08:13:17.842Z,21.17
2023-05-14T08:14:17.829Z,21.14
2023-05-14T08:15:17.819Z,21.16
2023-05-14T08:16:17.849Z,21.17
2023-05-14T08:17:17.984Z,21.21
2023-05-14T08:18:17.780Z,21.30
2023-05-14T08:19:17.862Z,21.35
2023-05-14T08:20:17.780Z,21.27
2023-05-14T08:21:17.758Z,21.30
2023-05-14T08:22:17.750Z,21.38
2023-05-14T08:23:17.732Z,21.48
2023-05-14T08:24:18.406Z,21.54
2023-05-14T08:25:17.716Z,21.53
2023-05-14T08:26:17.697Z,21.51
2023-05-14T08:27:17.715Z,21.53
2023-05-14T08:28:17.672Z,21.59
2023-05-14T08:29:17.671Z,21.57
2023-05-14T08:30:17.652Z,21.60
2023-05-14T08:31:17.723Z,21.71
2023-05-14T08:32:23.390Z,21.75
2023-05-14T08:33:17.630Z,21.72
2023-05-14T08:34:17.611Z,21.72
2023-05-14T08:35:18.463Z,21.61
2023-05-14T08:36:17.588Z,21.63
2023-05-14T08:37:17.585Z,21.61
2023-05-14T08:38:17.555Z,21.61
2023-05-14T08:39:17.566Z,21.59
2023-05-14T08:40:17.537Z,21.66
2023-05-14T08:41:18.451Z,21.69
2023-05-14T08:42:17.698Z,21.76
2023-05-14T08:43:17.506Z,21.79
2023-05-14T08:44:17.501Z,21.92
2023-05-14T08:45:17.492Z,22.06
2023-05-14T08:46:17.478Z,22.13
2023-05-14T08:47:17.474Z,22.19
2023-05-14T08:48:17.497Z,22.20
2023-05-14T08:49:17.464Z,22.28
2023-05-14T08:50:17.430Z,22.31
2023-05-14T08:51:17.478Z,22.34
2023-05-14T08:52:17.417Z,22.31
2023-05-14T08:53:18.019Z,22.23
2023-05-14T08:54:17.384Z,22.14
2023-05-14T08:55:17.372Z,22.10
2023-05-14T08:56:17.362Z,22.10
2023-05-14T08:57:17.389Z,22.10
2023-05-14T08:58:17.341Z,22.16
2023-05-14T08:59:17.329Z,22.13
2023-05-14T09:00:17.394Z,22.16
2023-05-14T09:01:17.336Z,22.16
2023-05-14T09:02:17.352Z,22.23
2023-05-14T09:03:17.311Z,22.34
2023-05-14T09:04:17.326Z,22.34
2023-05-14T09:05:17.273Z,22.29
2023-05-14T09:06:17.240Z,22.13
2023-05-14T09:07:17.256Z,22.04
2023-05-14T09:08:17.220Z,22.01
2023-05-14T09:09:17.223Z,21.95
2023-05-14T09:10:17.213Z,21.99
2023-05-14T09:11:17.201Z,21.97
2023-05-14T09:12:17.227Z,21.94
2023-05-14T09:13:17.238Z,21.79
2023-05-14T09:14:17.173Z,21.78
2023-05-14T09:15:17.208Z,21.76
2023-05-14T09:16:17.152Z,21.83
2023-05-14T09:17:17.150Z,21.85
2023-05-14T09:18:17.178Z,21.95
2023-05-14T09:19:17.138Z,22.01
2023-05-14T09:20:17.125Z,22.09
2023-05-14T09:21:17.098Z,22.13
2023-05-14T09:22:17.133Z,22.17
2023-05-14T09:23:17.085Z,22.34
2023-05-14T09:24:17.072Z,22.46
2023-05-14T09:25:17.042Z,22.53
2023-05-14T09:26:17.062Z,22.62
2023-05-14T09:27:17.094Z,22.71
2023-05-14T09:28:17.023Z,22.72
2023-05-14T09:29:17.013Z,22.65
2023-05-14T09:30:16.993Z,22.65
2023-05-14T09:31:17.011Z,22.69
2023-05-14T09:32:16.982Z,22.77
2023-05-14T09:33:16.979Z,22.84
2023-05-14T09:34:16.946Z,22.89
2023-05-14T09:35:16.941Z,22.94
2023-05-14T09:36:16.922Z,22.97
2023-05-14T09:37:16.932Z,22.99
2023-05-14T09:38:16.924Z,23.02
2023-05-14T09:39:16.889Z,22.99
2023-05-14T09:40:16.874Z,22.96
2023-05-14T09:41:16.873Z,22.86
2023-05-14T09:42:16.885Z,22.80
2023-05-14T09:43:16.843Z,22.77
2023-05-14T09:44:16.860Z,22.72
2023-05-14T09:45:16.832Z,22.71
2023-05-14T09:46:16.824Z,22.75
2023-05-14T09:47:16.861Z,22.82
2023-05-14T09:48:16.832Z,22.93
2023-05-14T09:49:16.775Z,22.96
2023-05-14T09:50:16.781Z,22.97
2023-05-14T09:51:16.762Z,23.04
2023-05-14T09:52:16.792Z,23.17
2023-05-14T09:53:16.743Z,23.23
2023-05-14T09:54:16.719Z,23.34
2023-05-14T09:55:16.720Z,23.27
2023-05-14T09:56:16.714Z,23.22
2023-05-14T09:57:16.694Z,23.08
2023-05-14T09:58:16.704Z,22.96
2023-05-14T09:59:16.675Z,22.80
2023-05-14T10:00:16.664Z,22.57
2023-05-14T10:01:16.700Z,22.67
2023-05-14T10:02:16.635Z,22.69
2023-05-14T10:03:19.580Z,22.80
2023-05-14T10:04:16.704Z,22.86
2023-05-14T10:05:16.649Z,23.04
2023-05-14T10:06:16.629Z,23.23
2023-05-14T10:07:16.593Z,23.34
2023-05-14T10:08:16.579Z,23.47
2023-05-14T10:09:16.566Z,23.65
2023-05-14T10:10:16.620Z,23.82
2023-05-14T10:11:16.550Z,23.94
2023-05-14T10:12:16.540Z,24.04
2023-05-14T10:13:16.525Z,24.02
2023-05-14T10:14:16.516Z,23.90
2023-05-14T10:15:16.487Z,23.89
2023-05-14T10:16:16.533Z,23.85
2023-05-14T10:17:16.514Z,23.90
2023-05-14T10:18:16.538Z,23.58
2023-05-14T10:19:16.612Z,23.43
2023-05-14T10:20:16.454Z,23.52
2023-05-14T10:21:16.440Z,23.62
2023-05-14T10:22:16.437Z,23.71
2023-05-14T10:23:16.428Z,23.83
2023-05-14T10:24:16.429Z,23.80
2023-05-14T10:25:16.414Z,23.90
2023-05-14T10:26:16.384Z,23.97
2023-05-14T10:27:16.380Z,23.86
2023-05-14T10:28:16.376Z,23.95
2023-05-14T10:29:16.381Z,24.05
2023-05-14T10:30:16.366Z,24.12
2023-05-14T10:31:16.392Z,24.16
2023-05-14T10:32:16.310Z,24.16
2023-05-14T10:33:16.384Z,24.05
2023-05-14T10:34:16.327Z,24.01
2023-05-14T10:35:16.290Z,23.98
2023-05-14T10:36:16.267Z,23.97
2023-05-14T10:37:16.272Z,24.07
2023-05-14T10:38:16.247Z,24.16
2023-05-14T10:39:16.244Z,24.37
2023-05-14T10:40:16.278Z,24.47
2023-05-14T10:41:16.204Z,24.47
2023-05-14T10:42:16.199Z,24.59
2023-05-14T10:43:16.203Z,24.68
2023-05-14T10:44:16.173Z,24.76
2023-05-14T10:45:16.197Z,24.88
2023-05-14T10:46:16.221Z,24.97
2023-05-14T10:47:16.149Z,24.91
2023-05-14T10:48:16.229Z,24.97
2023-05-14T10:49:20.971Z,24.94
2023-05-14T10:50:16.161Z,24.83
2023-05-14T10:51:16.152Z,24.76
2023-05-14T10:52:16.085Z,24.76
2023-05-14T10:53:16.101Z,24.85
2023-05-14T10:54:16.093Z,24.67
2023-05-14T10:55:16.125Z,24.63
2023-05-14T10:56:16.046Z,24.75
2023-05-14T10:57:16.050Z,24.76
2023-05-14T10:58:16.029Z,24.88
2023-05-14T10:59:16.024Z,25.00
2023-05-14T11:00:16.012Z,25.06
2023-05-14T11:01:15.998Z,25.00
2023-05-14T11:02:16.151Z,24.82
2023-05-14T11:03:16.008Z,24.61
2023-05-14T11:04:16.081Z,24.52
2023-05-14T11:05:16.192Z,24.39
2023-05-14T11:06:16.004Z,24.24
2023-05-14T11:07:15.934Z,24.19
2023-05-14T11:08:15.917Z,24.16
2023-05-14T11:09:15.914Z,24.13
2023-05-14T11:10:15.938Z,23.94
2023-05-14T11:11:15.893Z,23.90
2023-05-14T11:12:15.872Z,23.90
2023-05-14T11:13:15.863Z,23.85
2023-05-14T11:14:15.854Z,23.76
2023-05-14T11:15:15.871Z,23.70
2023-05-14T11:16:23.144Z,23.70
2023-05-14T11:17:15.894Z,23.68
2023-05-14T11:18:15.850Z,23.62
2023-05-14T11:19:15.943Z,23.50
2023-05-14T11:20:15.809Z,23.57
2023-05-14T11:21:15.790Z,23.64
2023-05-14T11:22:15.779Z,23.75
2023-05-14T11:23:15.760Z,23.76
2023-05-14T11:24:15.751Z,23.77
2023-05-14T11:25:15.826Z,23.83
2023-05-14T11:26:15.870Z,23.87
2023-05-14T11:27:15.722Z,24.01
2023-05-14T11:28:15.707Z,24.20
2023-05-14T11:29:15.701Z,24.24
2023-05-14T11:30:15.719Z,24.32
2023-05-14T11:31:15.717Z,24.42
2023-05-14T11:32:15.659Z,24.49
2023-05-14T11:33:15.712Z,24.41
2023-05-14T11:34:15.633Z,24.35
2023-05-14T11:35:15.663Z,24.34
2023-05-14T11:36:15.633Z,24.24
2023-05-14T11:37:15.639Z,24.23
2023-05-14T11:38:15.590Z,24.26
2023-05-14T11:39:15.585Z,24.34
2023-05-14T11:40:15.582Z,24.38
2023-05-14T11:41:15.571Z,24.34
2023-05-14T11:42:15.547Z,24.39
2023-05-14T11:43:15.531Z,24.42
2023-05-14T11:44:15.524Z,24.45
2023-05-14T11:45:15.545Z,24.53
2023-05-14T11:46:15.552Z,24.68
2023-05-14T11:47:15.513Z,24.75
2023-05-14T11:48:15.515Z,24.69
2023-05-14T11:49:15.475Z,24.57
2023-05-14T11:50:15.487Z,24.52
2023-05-14T11:51:15.454Z,24.44
2023-05-14T11:52:15.449Z,24.44
2023-05-14T11:53:15.424Z,24.45
2023-05-14T11:54:15.423Z,24.49
2023-05-14T11:55:15.436Z,24.41
2023-05-14T11:56:15.401Z,24.41
2023-05-14T11:57:15.391Z,24.47
2023-05-14T11:58:15.376Z,24.45
2023-05-14T11:59:15.365Z,24.24
2023-05-14T12:00:15.434Z,24.24
2023-05-14T12:01:15.339Z,24.22
2023-05-14T12:02:15.368Z,24.05
2023-05-14T12:03:15.437Z,24.00
2023-05-14T12:04:15.338Z,23.92
2023-05-14T12:05:15.301Z,23.80
2023-05-14T12:06:15.287Z,23.72
2023-05-14T12:07:15.307Z,23.71
2023-05-14T12:08:15.265Z,23.67
2023-05-14T12:09:15.256Z,23.76
2023-05-14T12:10:15.320Z,23.82
2023-05-14T12:11:15.226Z,23.82
2023-05-14T12:12:15.215Z,23.87
2023-05-14T12:13:15.205Z,23.83
2023-05-14T12:14:15.203Z,23.83
2023-05-14T12:15:15.215Z,23.89
2023-05-14T12:16:15.203Z,23.98
2023-05-14T12:17:15.165Z,24.05
2023-05-14T12:18:24.234Z,24.01
2023-05-14T12:19:15.209Z,23.95
2023-05-14T12:20:15.200Z,23.95
2023-05-14T12:21:15.126Z,23.97
2023-05-14T12:22:15.110Z,23.97
2023-05-14T12:23:15.100Z,23.89
2023-05-14T12:24:15.114Z,23.86
2023-05-14T12:25:22.993Z,23.85
2023-05-14T12:26:15.062Z,23.85
2023-05-14T12:27:15.064Z,23.89
2023-05-14T12:28:15.041Z,23.90
2023-05-14T12:29:15.027Z,23.95
2023-05-14T12:31:15.064Z,23.77
2023-05-14T12:32:14.997Z,23.62
2023-05-14T12:33:14.990Z,23.43
2023-05-14T12:34:14.981Z,23.38
2023-05-14T12:35:15.016Z,23.31
2023-05-14T12:37:14.981Z,23.22
2023-05-14T12:38:14.933Z,23.26
2023-05-14T12:39:14.928Z,23.19
2023-05-14T12:40:14.976Z,23.23
2023-05-14T12:41:14.908Z,23.46
2023-05-14T12:42:14.896Z,23.55
2023-05-14T12:43:14.895Z,23.68
2023-05-14T12:44:14.863Z,23.87
2023-05-14T12:45:14.881Z,24.08
2023-05-14T12:46:14.844Z,24.27
2023-05-14T12:47:14.958Z,24.45
2023-05-14T12:48:14.855Z,24.61
2023-05-14T12:49:14.856Z,24.76
2023-05-14T12:50:14.840Z,24.98
2023-05-14T12:51:14.816Z,25.25
2023-05-14T12:52:25.618Z,25.39
2023-05-14T12:53:14.774Z,25.43
2023-05-14T12:54:14.773Z,25.46